createdAt,value
2023-04-15T00:01:19.679Z,15.80
2023-04-15T00:03:48.644Z,15.70
2023-04-15T00:06:17.118Z,15.90
2023-04-15T00:08:45.406Z,15.80
2023-04-15T00:11:15.090Z,16.00
2023-04-15T00:13:43.434Z,15.90
2023-04-15T00:16:12.404Z,15.80
2023-04-15T00:18:41.285Z,15.70
2023-04-15T00:21:09.629Z,16.00
2023-04-15T00:23:37.917Z,15.50
2023-04-15T00:26:06.408Z,15.50
2023-04-15T00:28:36.021Z,15.80
2023-04-15T00:31:04.388Z,15.80
2023-04-15T00:33:32.793Z,15.60
2023-04-15T00:36:01.070Z,15.90
2023-04-15T00:38:29.362Z,16.10
2023-04-15T00:40:58.312Z,16.20
2023-04-15T00:43:27.791Z,16.00
2023-04-15T00:46:00.143Z,15.90
2023-04-15T00:48:29.326Z,16.00
2023-04-15T00:50:57.611Z,16.00
2023-04-15T00:53:26.007Z,16.10
2023-04-15T00:55:55.124Z,16.10
2023-04-15T00:58:23.990Z,16.00
2023-04-15T01:00:54.394Z,15.90
2023-04-15T01:03:24.390Z,16.00
2023-04-15T01:05:58.239Z,16.00
2023-04-15T01:08:28.849Z,16.00
2023-04-15T01:10:59.382Z,16.00
2023-04-15T01:13:28.136Z,16.00
2023-04-15T01:15:58.641Z,16.00
2023-04-15T01:18:28.762Z,15.90
2023-04-15T01:20:57.363Z,16.00
2023-04-15T01:23:26.380Z,16.00
2023-04-15T01:25:57.434Z,16.00
2023-04-15T01:28:25.918Z,15.90
2023-04-15T01:31:08.573Z,15.80
2023-04-15T01:33:36.884Z,15.80
2023-04-15T01:36:07.164Z,15.90
2023-04-15T01:38:35.975Z,15.80
2023-04-15T01:41:07.641Z,15.70
2023-04-15T01:43:37.144Z,15.80
2023-04-15T01:46:06.238Z,15.80
2023-04-15T01:48:34.629Z,15.80
2023-04-15T01:51:03.273Z,15.80
2023-04-15T01:53:31.608Z,15.70
2023-04-15T01:55:59.894Z,15.70
2023-04-15T01:58:29.534Z,15.70
2023-04-15T02:00:58.264Z,15.70
2023-04-15T02:03:27.775Z,15.80
2023-04-15T02:05:56.734Z,15.70
2023-04-15T02:08:25.084Z,15.70
2023-04-15T02:10:53.618Z,15.60
2023-04-15T02:13:21.843Z,15.40
2023-04-15T02:15:52.685Z,15.50
2023-04-15T02:18:21.487Z,15.60
2023-04-15T02:20:49.905Z,15.40
2023-04-15T02:23:18.155Z,15.30
2023-04-15T02:25:53.936Z,15.20
2023-04-15T03:52:52.752Z,15.20
2023-04-15T03:55:21.450Z,15.10
2023-04-15T03:57:51.146Z,15.10
2023-04-15T04:00:19.761Z,15.00
2023-04-15T04:02:48.237Z,15.00
2023-04-15T04:05:16.724Z,14.80
2023-04-15T04:07:45.040Z,14.70
2023-04-15T04:10:13.292Z,14.70
2023-04-15T04:12:41.673Z,14.80
2023-04-15T04:15:12.740Z,14.60
2023-04-15T04:20:10.658Z,14.20
2023-04-15T04:22:40.522Z,13.50
2023-04-15T04:25:11.202Z,13.40
2023-04-15T04:27:39.938Z,13.80
2023-04-15T04:30:10.903Z,14.40
2023-04-15T04:32:39.357Z,14.10
2023-04-15T04:35:08.332Z,14.30
2023-04-15T04:37:36.939Z,14.40
2023-04-15T04:40:06.373Z,14.70
2023-04-15T04:42:34.700Z,14.30
2023-04-15T04:45:02.941Z,14.30
2023-04-15T04:47:32.685Z,13.90
2023-04-15T04:50:00.923Z,14.20
2023-04-15T04:52:29.231Z,13.70
2023-04-15T04:54:57.499Z,13.30
2023-04-15T04:57:25.791Z,13.40
2023-04-15T04:59:54.060Z,12.30
2023-04-15T05:02:22.605Z,12.70
2023-04-15T05:04:54.446Z,13.10
2023-04-15T05:07:22.761Z,12.90
2023-04-15T05:09:51.515Z,13.40
2023-04-15T05:12:19.789Z,12.90
2023-04-15T05:14:48.081Z,13.00
2023-04-15T05:17:16.424Z,12.60
2023-04-15T05:19:44.687Z,12.40
2023-04-15T05:22:14.300Z,12.70
2023-04-15T05:24:42.637Z,12.40
2023-04-15T05:27:11.697Z,12.60
2023-04-15T05:29:39.979Z,12.90
2023-04-15T05:32:08.585Z,13.50
2023-04-15T05:34:37.345Z,13.20
2023-04-15T05:37:05.951Z,13.80
2023-04-15T05:39:35.630Z,14.00
2023-04-15T05:42:03.903Z,14.00
2023-04-15T05:44:32.181Z,13.70
2023-04-15T05:47:00.793Z,14.20
2023-04-15T05:49:29.204Z,15.50
2023-04-15T05:51:57.510Z,15.70
2023-04-15T05:54:27.855Z,15.70
2023-04-15T05:59:27.208Z,14.50
2023-04-15T06:01:55.517Z,15.20
2023-04-15T06:04:24.300Z,15.30
2023-04-15T06:06:52.616Z,15.50
2023-04-15T06:09:20.969Z,15.60
2023-04-15T06:14:21.111Z,14.80
2023-04-15T06:16:49.362Z,12.90
2023-04-15T06:19:18.448Z,13.10
2023-04-15T06:21:47.116Z,13.70
2023-04-15T06:24:15.552Z,13.60
2023-04-15T06:26:43.826Z,14.80
2023-04-15T06:29:12.109Z,14.80
2023-04-15T06:31:41.850Z,15.40
2023-04-15T06:34:11.202Z,15.30
2023-04-15T06:36:39.421Z,15.00
2023-04-15T06:39:07.661Z,14.90
2023-04-15T06:41:35.987Z,14.30
2023-04-15T06:44:04.452Z,13.60
2023-04-15T06:46:32.801Z,13.80
2023-04-15T06:51:32.796Z,14.60
2023-04-15T06:54:01.108Z,14.80
2023-04-15T06:56:29.552Z,13.90
2023-04-15T06:58:57.838Z,14.50
2023-04-15T07:01:26.228Z,13.80
2023-04-15T07:03:54.639Z,14.20
2023-04-15T07:06:24.756Z,14.20
2023-04-15T07:16:19.245Z,14.40
2023-04-15T07:21:16.384Z,14.00
2023-04-15T07:23:46.013Z,12.80
2023-04-15T07:26:14.268Z,13.10
2023-04-15T07:28:42.680Z,12.80
2023-04-15T07:31:11.202Z,13.20
2023-04-15T07:36:08.238Z,14.30
2023-04-15T07:38:36.467Z,13.30
2023-04-15T07:48:31.960Z,14.00
2023-04-15T07:51:00.829Z,13.10
2023-04-15T07:55:57.644Z,14.30
2023-04-15T07:58:27.461Z,12.90
2023-04-15T08:00:55.858Z,13.60
2023-04-15T08:03:24.647Z,13.60
2023-04-15T08:05:52.930Z,13.60
2023-04-15T08:08:21.198Z,13.70
2023-04-15T08:10:51.393Z,13.60
2023-04-15T08:13:21.708Z,13.20
2023-04-15T08:16:19.915Z,13.10
2023-04-15T08:18:48.732Z,13.90
2023-04-15T08:21:17.819Z,13.10
2023-04-15T08:23:47.705Z,13.10
2023-04-15T08:26:16.021Z,14.10
2023-04-15T08:28:45.808Z,13.80
2023-04-15T08:31:15.068Z,13.50
2023-04-15T08:33:44.914Z,13.80
2023-04-15T08:36:13.922Z,14.30
2023-04-15T08:38:42.221Z,13.30
2023-04-15T08:41:21.817Z,13.80
2023-04-15T08:43:55.514Z,13.60
2023-04-15T08:46:24.455Z,13.60
2023-04-15T08:48:57.629Z,13.10
2023-04-15T08:51:26.782Z,14.00
2023-04-15T08:53:55.578Z,14.00
2023-04-15T08:56:27.686Z,14.40
2023-04-15T08:58:56.420Z,15.00
2023-04-15T09:01:24.815Z,14.80
2023-04-15T09:03:55.592Z,14.70
2023-04-15T09:06:24.681Z,14.60
2023-04-15T09:08:53.444Z,14.10
2023-04-15T09:11:23.789Z,13.50
2023-04-15T09:16:20.992Z,14.10
2023-04-15T09:18:49.262Z,14.80
2023-04-15T09:21:19.598Z,15.70
2023-04-15T09:23:58.652Z,15.60
2023-04-15T09:29:07.933Z,15.40
2023-04-15T09:31:36.907Z,14.00
2023-04-15T09:34:05.409Z,14.10
2023-04-15T09:42:05.696Z,13.90
2023-04-15T09:44:33.922Z,14.60
2023-04-15T09:47:02.363Z,14.70
2023-04-15T09:49:30.956Z,15.10
2023-04-15T09:52:06.152Z,15.80
2023-04-15T09:54:36.994Z,15.20
2023-04-15T09:59:38.815Z,14.60
2023-04-15T10:07:12.839Z,14.30
2023-04-15T10:09:41.656Z,15.10
2023-04-15T10:12:11.035Z,14.50
2023-04-15T10:14:41.525Z,14.60
2023-04-15T10:19:41.529Z,14.20
2023-04-15T10:22:11.344Z,14.10
2023-04-15T10:32:09.188Z,14.00
2023-04-15T10:34:38.100Z,13.40
2023-04-15T10:37:06.795Z,13.90
2023-04-15T10:47:15.508Z,14.10
2023-04-15T10:49:49.988Z,13.80
2023-04-15T10:52:24.172Z,14.20
2023-04-15T10:55:03.071Z,13.70
2023-04-15T10:57:36.972Z,13.30
2023-04-15T11:00:14.019Z,13.60
2023-04-15T11:02:45.255Z,13.50
2023-04-15T11:05:14.714Z,13.30
2023-04-15T11:07:51.694Z,13.60
2023-04-15T11:10:57.556Z,13.80
2023-04-15T11:13:33.153Z,13.90
2023-04-15T11:16:03.439Z,14.10
2023-04-15T11:18:34.656Z,14.10
2023-04-15T11:23:44.326Z,13.80
2023-04-15T11:26:12.963Z,13.60
2023-04-15T11:28:44.944Z,13.80
2023-04-15T11:31:15.415Z,13.90
2023-04-15T11:36:16.513Z,14.00
2023-04-15T11:43:46.223Z,15.10
2023-04-15T11:51:15.518Z,14.70
2023-04-15T12:24:33.889Z,13.60
2023-04-15T12:32:09.071Z,14.30
2023-04-15T12:34:39.703Z,13.70
2023-04-15T12:37:10.688Z,13.60
2023-04-15T12:42:10.160Z,14.00
2023-04-15T12:47:11.415Z,14.40
2023-04-15T12:49:40.927Z,14.50
2023-04-15T12:52:09.510Z,13.90
2023-04-15T12:54:37.810Z,13.30
2023-04-15T12:57:07.471Z,13.30
2023-04-15T12:59:36.502Z,13.60
2023-04-15T13:02:06.404Z,14.30
2023-04-15T13:04:34.783Z,14.40
2023-04-15T13:07:03.282Z,14.70
2023-04-15T13:09:31.605Z,15.20
2023-04-15T13:11:59.826Z,14.50
2023-04-15T13:14:28.189Z,14.20
2023-04-15T13:16:56.396Z,13.80
2023-04-15T13:19:25.997Z,13.60
2023-04-15T13:21:54.242Z,13.90
2023-04-15T13:24:22.488Z,13.80
2023-04-15T13:31:47.781Z,13.20
2023-04-15T13:34:16.208Z,12.70
2023-04-15T13:36:46.024Z,13.30
2023-04-15T13:39:14.327Z,13.50
2023-04-15T13:41:42.665Z,13.20
2023-04-15T13:44:12.389Z,13.70
2023-04-15T13:46:41.931Z,13.10
2023-04-15T13:49:10.298Z,13.80
2023-04-15T13:51:38.521Z,14.20
2023-04-15T13:54:08.091Z,14.80
2023-04-15T13:56:36.509Z,15.60
2023-04-15T13:59:06.586Z,14.40
2023-04-15T14:01:35.661Z,13.40
2023-04-15T14:09:01.783Z,13.50
2023-04-15T14:11:31.430Z,14.10
2023-04-15T14:13:59.714Z,13.90
2023-04-15T14:16:28.115Z,14.40
2023-04-15T14:18:56.354Z,13.80
2023-04-15T14:21:24.710Z,13.80
2023-04-15T14:31:21.089Z,13.40
2023-04-15T14:33:49.413Z,14.20
2023-04-15T14:36:17.708Z,14.20
2023-04-15T14:38:47.505Z,13.70
2023-04-15T14:53:41.587Z,13.30
2023-04-15T14:56:09.894Z,14.20
2023-04-15T14:58:38.193Z,13.40
2023-04-15T15:01:06.824Z,14.10
2023-04-15T15:03:36.569Z,14.90
2023-04-15T15:06:05.129Z,13.90
2023-04-15T15:08:33.382Z,13.00
2023-04-15T15:11:01.624Z,12.70
2023-04-15T15:13:29.890Z,12.20
2023-04-15T15:15:58.951Z,12.30
2023-04-15T15:18:27.321Z,12.00
2023-04-15T15:23:25.539Z,13.60
2023-04-15T15:25:53.898Z,14.50
2023-04-15T15:28:22.785Z,14.10
2023-04-15T15:30:51.070Z,14.10
2023-04-15T15:33:19.293Z,12.90
2023-04-15T15:35:47.646Z,12.40
2023-04-15T15:38:17.305Z,12.70
2023-04-15T15:40:45.548Z,13.70
2023-04-15T15:43:13.777Z,14.30
2023-04-15T15:45:42.419Z,13.30
2023-04-15T15:48:11.036Z,13.20
2023-04-15T15:50:39.397Z,13.10
2023-04-15T15:53:07.641Z,13.90
2023-04-15T15:58:05.823Z,14.30
2023-04-15T16:00:34.084Z,12.80
2023-04-15T16:03:07.188Z,12.80
2023-04-15T16:05:36.227Z,13.50
2023-04-15T16:08:04.647Z,11.90
2023-04-15T16:10:33.002Z,12.40
2023-04-15T16:13:02.909Z,13.00
2023-04-15T16:15:31.334Z,12.60
2023-04-15T16:17:59.675Z,12.60
2023-04-15T16:20:28.424Z,12.50
2023-04-15T16:22:58.643Z,12.80
2023-04-15T16:25:27.202Z,12.50
2023-04-15T16:28:05.584Z,12.70
2023-04-15T16:30:41.808Z,12.20
2023-04-15T16:33:10.673Z,11.80
2023-04-15T16:35:38.970Z,12.80
2023-04-15T16:38:07.469Z,13.60
2023-04-15T16:40:35.899Z,13.60
2023-04-15T16:43:04.535Z,13.10
2023-04-15T16:45:32.807Z,13.70
2023-04-15T16:48:02.469Z,13.50
2023-04-15T16:50:31.498Z,12.80
2023-04-15T16:52:59.764Z,14.10
2023-04-15T16:55:28.347Z,15.10
2023-04-15T17:00:32.254Z,13.70
2023-04-15T17:03:02.157Z,14.00
2023-04-15T17:15:26.225Z,12.90
2023-04-15T17:17:54.688Z,13.00
2023-04-15T17:20:24.397Z,12.70
2023-04-15T17:22:52.748Z,13.00
2023-04-15T17:25:21.259Z,12.10
2023-04-15T17:27:49.554Z,12.10
2023-04-15T17:30:17.804Z,11.60
2023-04-15T17:32:46.197Z,11.60
2023-04-15T17:35:14.733Z,11.90
2023-04-15T17:37:44.361Z,12.10
2023-04-15T17:40:14.881Z,12.20
2023-04-15T17:42:43.162Z,13.30
2023-04-15T17:45:12.618Z,13.30
2023-04-15T17:47:40.974Z,13.70
2023-04-15T17:50:10.353Z,13.00
2023-04-15T17:52:38.634Z,12.70
2023-04-15T17:55:09.618Z,12.50
2023-04-15T17:57:38.011Z,12.20
2023-04-15T18:00:08.849Z,12.80
2023-04-15T18:02:37.515Z,12.30
2023-04-15T18:05:07.320Z,12.30
2023-04-15T18:07:36.094Z,13.30
2023-04-15T18:10:04.747Z,12.80
2023-04-15T18:12:34.377Z,12.80
2023-04-15T18:15:02.674Z,13.60
2023-04-15T18:17:31.369Z,12.90
2023-04-15T18:19:59.686Z,13.30
2023-04-15T18:27:28.487Z,13.70
2023-04-15T18:29:58.146Z,12.20
2023-04-15T18:32:31.677Z,12.00
2023-04-15T18:35:00.338Z,12.10
2023-04-15T18:37:29.974Z,13.20
2023-04-15T18:39:58.735Z,13.80
2023-04-15T18:42:27.319Z,12.30
2023-04-15T18:44:56.994Z,13.30
2023-04-15T18:47:27.642Z,11.70
2023-04-15T18:49:55.960Z,13.60
2023-04-15T18:54:52.777Z,13.40
2023-04-15T18:57:23.373Z,13.20
2023-04-15T19:00:00.720Z,12.90
